sensor_id;sensor_type;location;lat;lon;timestamp;P1;durP1;ratioP1;P2;durP2;ratioP2
36797;SDS011;22748;8.426;99.512;2023-10-09T00:01:06;24.55;;;21.98;;
36797;SDS011;22748;8.426;99.512;2023-10-09T00:03:46;24.98;;;22.50;;
36797;SDS011;22748;8.426;99.512;2023-10-09T00:06:21;27.38;;;23.10;;
36797;SDS011;22748;8.426;99.512;2023-10-09T00:09:04;25.75;;;22.33;;
36797;SDS011;22748;8.426;99.512;2023-10-09T00:11:57;31.08;;;25.35;;
36797;SDS011;22748;8.426;99.512;2023-10-09T00:14:30;28.48;;;25.27;;
36797;SDS011;22748;8.426;99.512;2023-10-09T00:17:02;28.02;;;25.02;;
36797;SDS011;22748;8.426;99.512;2023-10-09T00:19:46;25.83;;;22.25;;
36797;SDS011;22748;8.426;99.512;2023-10-09T00:22:19;27.83;;;22.63;;
36797;SDS011;22748;8.426;99.512;2023-10-09T00:24:56;25.30;;;22.58;;
36797;SDS011;22748;8.426;99.512;2023-10-09T00:27:50;28.30;;;20.83;;
36797;SDS011;22748;8.426;99.512;2023-10-09T00:30:32;26.48;;;20.83;;
36797;SDS011;22748;8.426;99.512;2023-10-09T00:33:03;23.15;;;20.23;;
36797;SDS011;22748;8.426;99.512;2023-10-09T00:38:21;23.90;;;20.85;;
36797;SDS011;22748;8.426;99.512;2023-10-09T00:40:59;31.02;;;21.95;;
36797;SDS011;22748;8.426;99.512;2023-10-09T00:43:46;23.92;;;21.10;;
36797;SDS011;22748;8.426;99.512;2023-10-09T00:46:21;27.17;;;22.98;;
36797;SDS011;22748;8.426;99.512;2023-10-09T00:48:54;25.75;;;22.23;;
36797;SDS011;22748;8.426;99.512;2023-10-09T00:51:30;26.02;;;22.02;;
36797;SDS011;22748;8.426;99.512;2023-10-09T00:54:04;24.30;;;21.70;;
36797;SDS011;22748;8.426;99.512;2023-10-09T00:56:52;25.33;;;22.05;;
36797;SDS011;22748;8.426;99.512;2023-10-09T00:59:33;26.02;;;21.98;;
36797;SDS011;22748;8.426;99.512;2023-10-09T01:02:06;27.20;;;22.85;;
36797;SDS011;22748;8.426;99.512;2023-10-09T01:04:37;26.95;;;24.02;;
36797;SDS011;22748;8.426;99.512;2023-10-09T01:07:44;31.35;;;25.33;;
36797;SDS011;22748;8.426;99.512;2023-10-09T01:10:25;30.42;;;22.98;;
36797;SDS011;22748;8.426;99.512;2023-10-09T01:13:03;30.92;;;25.48;;
36797;SDS011;22748;8.426;99.512;2023-10-09T01:15:39;26.58;;;22.98;;
36797;SDS011;22748;8.426;99.512;2023-10-09T01:18:15;31.50;;;23.67;;
36797;SDS011;22748;8.426;99.512;2023-10-09T01:20:46;26.73;;;23.80;;
36797;SDS011;22748;8.426;99.512;2023-10-09T01:23:31;29.13;;;24.08;;
36797;SDS011;22748;8.426;99.512;2023-10-09T01:26:25;28.65;;;25.17;;
36797;SDS011;22748;8.426;99.512;2023-10-09T01:28:59;28.33;;;23.90;;
36797;SDS011;22748;8.426;99.512;2023-10-09T01:31:31;31.20;;;26.48;;
36797;SDS011;22748;8.426;99.512;2023-10-09T01:34:10;32.15;;;24.73;;
36797;SDS011;22748;8.426;99.512;2023-10-09T01:36:50;30.67;;;24.55;;
36797;SDS011;22748;8.426;99.512;2023-10-09T01:39:28;35.72;;;26.85;;
36797;SDS011;22748;8.426;99.512;2023-10-09T01:42:07;31.48;;;25.40;;
36797;SDS011;22748;8.426;99.512;2023-10-09T01:44:50;44.83;;;27.30;;
36797;SDS011;22748;8.426;99.512;2023-10-09T01:47:21;27.42;;;24.50;;
36797;SDS011;22748;8.426;99.512;2023-10-09T01:49:57;29.58;;;26.05;;
36797;SDS011;22748;8.426;99.512;2023-10-09T01:52:31;28.77;;;24.88;;
36797;SDS011;22748;8.426;99.512;2023-10-09T01:55:04;33.10;;;26.75;;
36797;SDS011;22748;8.426;99.512;2023-10-09T01:57:36;34.35;;;28.35;;
36797;SDS011;22748;8.426;99.512;2023-10-09T02:00:10;27.35;;;24.45;;
36797;SDS011;22748;8.426;99.512;2023-10-09T02:02:51;38.65;;;28.73;;
36797;SDS011;22748;8.426;99.512;2023-10-09T02:05:41;27.67;;;24.45;;
36797;SDS011;22748;8.426;99.512;2023-10-09T02:08:25;33.75;;;25.20;;
36797;SDS011;22748;8.426;99.512;2023-10-09T02:11:03;32.15;;;25.55;;
36797;SDS011;22748;8.426;99.512;2023-10-09T02:13:42;27.42;;;22.38;;
36797;SDS011;22748;8.426;99.512;2023-10-09T02:16:19;46.20;;;25.67;;
36797;SDS011;22748;8.426;99.512;2023-10-09T02:19:08;26.67;;;22.95;;
36797;SDS011;22748;8.426;99.512;2023-10-09T02:22:01;24.08;;;21.52;;
36797;SDS011;22748;8.426;99.512;2023-10-09T02:24:39;29.13;;;21.35;;
36797;SDS011;22748;8.426;99.512;2023-10-09T02:27:25;24.98;;;21.25;;
36797;SDS011;22748;8.426;99.512;2023-10-09T02:30:22;24.40;;;21.40;;
36797;SDS011;22748;8.426;99.512;2023-10-09T02:32:55;21.60;;;18.90;;
36797;SDS011;22748;8.426;99.512;2023-10-09T02:35:34;23.70;;;19.40;;
36797;SDS011;22748;8.426;99.512;2023-10-09T02:38:18;26.80;;;19.85;;
36797;SDS011;22748;8.426;99.512;2023-10-09T02:40:50;23.75;;;17.92;;
36797;SDS011;22748;8.426;99.512;2023-10-09T02:43:39;19.33;;;17.25;;
36797;SDS011;22748;8.426;99.512;2023-10-09T02:49:01;17.42;;;15.63;;
36797;SDS011;22748;8.426;99.512;2023-10-09T02:51:43;17.13;;;15.43;;
36797;SDS011;22748;8.426;99.512;2023-10-09T02:54:21;16.60;;;14.95;;
36797;SDS011;22748;8.426;99.512;2023-10-09T02:57:08;15.25;;;13.80;;
36797;SDS011;22748;8.426;99.512;2023-10-09T02:59:51;16.52;;;14.82;;
36797;SDS011;22748;8.426;99.512;2023-10-09T03:02:22;19.40;;;16.27;;
36797;SDS011;22748;8.426;99.512;2023-10-09T03:04:53;20.70;;;16.25;;
36797;SDS011;22748;8.426;99.512;2023-10-09T03:07:24;17.92;;;15.23;;
36797;SDS011;22748;8.426;99.512;2023-10-09T03:09:54;16.63;;;15.02;;
36797;SDS011;22748;8.426;99.512;2023-10-09T03:12:24;19.00;;;15.40;;
36797;SDS011;22748;8.426;99.512;2023-10-09T03:14:57;16.52;;;14.80;;
36797;SDS011;22748;8.426;99.512;2023-10-09T03:17:29;16.70;;;15.10;;
36797;SDS011;22748;8.426;99.512;2023-10-09T03:20:03;15.35;;;13.88;;
36797;SDS011;22748;8.426;99.512;2023-10-09T03:22:39;18.25;;;14.50;;
36797;SDS011;22748;8.426;99.512;2023-10-09T03:25:11;15.57;;;14.00;;
36797;SDS011;22748;8.426;99.512;2023-10-09T03:27:44;16.80;;;15.10;;
36797;SDS011;22748;8.426;99.512;2023-10-09T03:30:17;17.30;;;15.50;;
36797;SDS011;22748;8.426;99.512;2023-10-09T03:32:50;15.20;;;13.48;;
36797;SDS011;22748;8.426;99.512;2023-10-09T03:35:21;13.93;;;12.63;;
36797;SDS011;22748;8.426;99.512;2023-10-09T03:38:02;13.95;;;12.52;;
36797;SDS011;22748;8.426;99.512;2023-10-09T03:40:44;14.98;;;11.90;;
36797;SDS011;22748;8.426;99.512;2023-10-09T03:43:14;11.93;;;10.30;;
36797;SDS011;22748;8.426;99.512;2023-10-09T03:48:21;10.60;;;9.50;;
36797;SDS011;22748;8.426;99.512;2023-10-09T03:50:52;12.35;;;11.05;;
36797;SDS011;22748;8.426;99.512;2023-10-09T03:53:36;11.60;;;10.40;;
36797;SDS011;22748;8.426;99.512;2023-10-09T03:56:07;11.45;;;9.57;;
36797;SDS011;22748;8.426;99.512;2023-10-09T03:58:40;11.35;;;10.02;;
36797;SDS011;22748;8.426;99.512;2023-10-09T04:03:49;9.82;;;8.45;;
36797;SDS011;22748;8.426;99.512;2023-10-09T04:06:27;8.20;;;6.97;;
36797;SDS011;22748;8.426;99.512;2023-10-09T04:09:05;7.78;;;7.00;;
36797;SDS011;22748;8.426;99.512;2023-10-09T04:11:54;9.32;;;7.65;;
36797;SDS011;22748;8.426;99.512;2023-10-09T04:14:41;12.20;;;7.60;;
36797;SDS011;22748;8.426;99.512;2023-10-09T04:17:22;8.60;;;7.43;;
36797;SDS011;22748;8.426;99.512;2023-10-09T04:20:09;9.68;;;8.02;;
36797;SDS011;22748;8.426;99.512;2023-10-09T04:23:07;10.43;;;8.40;;
36797;SDS011;22748;8.426;99.512;2023-10-09T04:25:42;9.70;;;8.55;;
36797;SDS011;22748;8.426;99.512;2023-10-09T04:28:17;9.70;;;8.77;;
36797;SDS011;22748;8.426;99.512;2023-10-09T04:30:48;10.68;;;9.57;;
36797;SDS011;22748;8.426;99.512;2023-10-09T04:33:25;15.10;;;10.75;;
36797;SDS011;22748;8.426;99.512;2023-10-09T04:36:09;10.88;;;9.77;;
36797;SDS011;22748;8.426;99.512;2023-10-09T04:39:03;10.70;;;9.57;;
36797;SDS011;22748;8.426;99.512;2023-10-09T04:41:51;12.45;;;9.90;;
36797;SDS011;22748;8.426;99.512;2023-10-09T04:44:41;11.00;;;9.10;;
36797;SDS011;22748;8.426;99.512;2023-10-09T04:47:27;6.88;;;6.22;;
36797;SDS011;22748;8.426;99.512;2023-10-09T04:50:05;8.27;;;6.22;;
36797;SDS011;22748;8.426;99.512;2023-10-09T04:52:37;10.15;;;7.40;;
36797;SDS011;22748;8.426;99.512;2023-10-09T04:55:20;8.23;;;7.18;;
36797;SDS011;22748;8.426;99.512;2023-10-09T04:57:52;9.52;;;7.57;;
36797;SDS011;22748;8.426;99.512;2023-10-09T05:00:41;7.38;;;6.47;;
36797;SDS011;22748;8.426;99.512;2023-10-09T05:03:25;7.95;;;7.25;;
36797;SDS011;22748;8.426;99.512;2023-10-09T05:05:59;9.00;;;7.95;;
36797;SDS011;22748;8.426;99.512;2023-10-09T05:08:48;9.32;;;6.93;;
36797;SDS011;22748;8.426;99.512;2023-10-09T05:11:22;9.15;;;8.27;;
36797;SDS011;22748;8.426;99.512;2023-10-09T05:14:09;8.75;;;7.40;;
36797;SDS011;22748;8.426;99.512;2023-10-09T05:16:40;9.93;;;7.43;;
36797;SDS011;22748;8.426;99.512;2023-10-09T05:19:28;8.13;;;7.32;;
36797;SDS011;22748;8.426;99.512;2023-10-09T05:22:14;9.55;;;7.50;;
36797;SDS011;22748;8.426;99.512;2023-10-09T05:25:03;11.15;;;7.28;;
36797;SDS011;22748;8.426;99.512;2023-10-09T05:28:03;8.07;;;7.28;;
36797;SDS011;22748;8.426;99.512;2023-10-09T05:30:47;7.30;;;6.50;;
36797;SDS011;22748;8.426;99.512;2023-10-09T05:33:22;7.80;;;7.10;;
36797;SDS011;22748;8.426;99.512;2023-10-09T05:36:11;8.02;;;7.13;;
36797;SDS011;22748;8.426;99.512;2023-10-09T05:38:59;7.47;;;6.78;;
36797;SDS011;22748;8.426;99.512;2023-10-09T05:41:43;8.93;;;8.13;;
36797;SDS011;22748;8.426;99.512;2023-10-09T05:44:28;9.73;;;8.27;;
36797;SDS011;22748;8.426;99.512;2023-10-09T05:47:15;10.82;;;7.95;;
36797;SDS011;22748;8.426;99.512;2023-10-09T05:50:02;11.77;;;8.32;;
36797;SDS011;22748;8.426;99.512;2023-10-09T05:52:49;11.10;;;8.57;;
36797;SDS011;22748;8.426;99.512;2023-10-09T05:55:33;12.90;;;11.50;;
36797;SDS011;22748;8.426;99.512;2023-10-09T05:58:19;10.43;;;9.43;;
36797;SDS011;22748;8.426;99.512;2023-10-09T06:01:17;10.32;;;8.75;;
36797;SDS011;22748;8.426;99.512;2023-10-09T06:04:03;9.95;;;8.98;;
36797;SDS011;22748;8.426;99.512;2023-10-09T06:06:42;9.82;;;8.93;;
36797;SDS011;22748;8.426;99.512;2023-10-09T06:09:14;9.38;;;8.57;;
36797;SDS011;22748;8.426;99.512;2023-10-09T06:12:13;10.02;;;8.52;;
36797;SDS011;22748;8.426;99.512;2023-10-09T06:14:59;16.50;;;10.85;;
36797;SDS011;22748;8.426;99.512;2023-10-09T06:17:41;10.60;;;9.63;;
36797;SDS011;22748;8.426;99.512;2023-10-09T06:20:17;10.52;;;9.30;;
36797;SDS011;22748;8.426;99.512;2023-10-09T06:23:04;10.27;;;9.32;;
36797;SDS011;22748;8.426;99.512;2023-10-09T06:26:05;10.82;;;9.73;;
36797;SDS011;22748;8.426;99.512;2023-10-09T06:28:52;10.60;;;9.32;;
36797;SDS011;22748;8.426;99.512;2023-10-09T06:31:39;10.05;;;9.02;;
36797;SDS011;22748;8.426;99.512;2023-10-09T06:34:27;10.07;;;9.05;;
36797;SDS011;22748;8.426;99.512;2023-10-09T06:37:18;10.02;;;9.10;;
36797;SDS011;22748;8.426;99.512;2023-10-09T06:40:01;11.50;;;9.05;;
36797;SDS011;22748;8.426;99.512;2023-10-09T06:42:59;17.70;;;10.35;;
36797;SDS011;22748;8.426;99.512;2023-10-09T06:45:37;9.68;;;8.80;;
36797;SDS011;22748;8.426;99.512;2023-10-09T06:48:25;10.38;;;9.43;;
36797;SDS011;22748;8.426;99.512;2023-10-09T06:51:13;11.00;;;9.90;;
36797;SDS011;22748;8.426;99.512;2023-10-09T06:54:04;10.27;;;9.27;;
36797;SDS011;22748;8.426;99.512;2023-10-09T06:56:35;12.40;;;10.25;;
36797;SDS011;22748;8.426;99.512;2023-10-09T06:59:22;12.63;;;10.45;;
36797;SDS011;22748;8.426;99.512;2023-10-09T07:02:10;13.85;;;11.25;;
36797;SDS011;22748;8.426;99.512;2023-10-09T07:04:52;10.88;;;9.70;;
36797;SDS011;22748;8.426;99.512;2023-10-09T07:07:23;10.20;;;9.20;;
36797;SDS011;22748;8.426;99.512;2023-10-09T07:09:52;10.48;;;9.38;;
36797;SDS011;22748;8.426;99.512;2023-10-09T07:12:39;9.63;;;8.68;;
36797;SDS011;22748;8.426;99.512;2023-10-09T07:15:19;11.32;;;8.93;;
36797;SDS011;22748;8.426;99.512;2023-10-09T07:18:05;10.02;;;9.13;;
36797;SDS011;22748;8.426;99.512;2023-10-09T07:20:49;11.73;;;9.35;;
36797;SDS011;22748;8.426;99.512;2023-10-09T07:23:37;10.38;;;9.27;;
36797;SDS011;22748;8.426;99.512;2023-10-09T07:26:14;10.27;;;9.30;;
36797;SDS011;22748;8.426;99.512;2023-10-09T07:28:52;10.43;;;9.40;;
36797;SDS011;22748;8.426;99.512;2023-10-09T07:31:43;14.93;;;10.77;;
36797;SDS011;22748;8.426;99.512;2023-10-09T07:34:15;10.32;;;9.18;;
36797;SDS011;22748;8.426;99.512;2023-10-09T07:37:19;10.55;;;9.55;;
36797;SDS011;22748;8.426;99.512;2023-10-09T07:39:50;10.57;;;9.57;;
36797;SDS011;22748;8.426;99.512;2023-10-09T07:42:25;11.77;;;10.65;;
36797;SDS011;22748;8.426;99.512;2023-10-09T07:45:11;11.63;;;10.43;;
36797;SDS011;22748;8.426;99.512;2023-10-09T07:50:43;11.75;;;10.55;;
36797;SDS011;22748;8.426;99.512;2023-10-09T07:53:24;11.32;;;9.75;;
36797;SDS011;22748;8.426;99.512;2023-10-09T07:55:55;11.63;;;10.43;;
36797;SDS011;22748;8.426;99.512;2023-10-09T07:58:34;14.13;;;11.90;;
36797;SDS011;22748;8.426;99.512;2023-10-09T08:01:14;13.23;;;11.82;;
36797;SDS011;22748;8.426;99.512;2023-10-09T08:04:01;12.75;;;11.27;;
36797;SDS011;22748;8.426;99.512;2023-10-09T08:06:39;14.50;;;11.38;;
36797;SDS011;22748;8.426;99.512;2023-10-09T08:09:11;14.70;;;13.20;;
36797;SDS011;22748;8.426;99.512;2023-10-09T08:11:57;11.77;;;10.68;;
36797;SDS011;22748;8.426;99.512;2023-10-09T08:15:03;15.07;;;10.85;;
36797;SDS011;22748;8.426;99.512;2023-10-09T08:18:17;16.25;;;12.82;;
36797;SDS011;22748;8.426;99.512;2023-10-09T08:20:54;28.05;;;16.23;;
36797;SDS011;22748;8.426;99.512;2023-10-09T08:23:42;17.80;;;14.07;;
36797;SDS011;22748;8.426;99.512;2023-10-09T08:26:31;15.10;;;13.38;;
36797;SDS011;22748;8.426;99.512;2023-10-09T08:29:13;15.07;;;13.52;;
36797;SDS011;22748;8.426;99.512;2023-10-09T08:31:46;25.13;;;15.10;;
36797;SDS011;22748;8.426;99.512;2023-10-09T08:34:24;21.80;;;15.52;;
36797;SDS011;22748;8.426;99.512;2023-10-09T08:37:02;19.60;;;16.05;;
36797;SDS011;22748;8.426;99.512;2023-10-09T08:39:35;19.53;;;17.47;;
36797;SDS011;22748;8.426;99.512;2023-10-09T08:42:06;18.20;;;16.25;;
36797;SDS011;22748;8.426;99.512;2023-10-09T08:44:40;21.15;;;18.13;;
36797;SDS011;22748;8.426;99.512;2023-10-09T08:47:16;20.95;;;17.48;;
36797;SDS011;22748;8.426;99.512;2023-10-09T08:49:47;19.75;;;16.90;;
36797;SDS011;22748;8.426;99.512;2023-10-09T08:52:19;19.95;;;17.70;;
36797;SDS011;22748;8.426;99.512;2023-10-09T08:54:53;26.15;;;18.52;;
36797;SDS011;22748;8.426;99.512;2023-10-09T08:57:24;30.92;;;22.00;;
36797;SDS011;22748;8.426;99.512;2023-10-09T08:59:59;22.33;;;19.95;;
36797;SDS011;22748;8.426;99.512;2023-10-09T09:02:35;21.98;;;18.08;;
36797;SDS011;22748;8.426;99.512;2023-10-09T09:05:16;27.48;;;19.00;;
36797;SDS011;22748;8.426;99.512;2023-10-09T09:07:48;21.13;;;18.30;;
36797;SDS011;22748;8.426;99.512;2023-10-09T09:10:25;18.17;;;15.95;;
36797;SDS011;22748;8.426;99.512;2023-10-09T09:13:02;21.42;;;16.98;;
36797;SDS011;22748;8.426;99.512;2023-10-09T09:15:33;18.25;;;15.95;;
36797;SDS011;22748;8.426;99.512;2023-10-09T09:18:06;18.52;;;16.13;;
36797;SDS011;22748;8.426;99.512;2023-10-09T09:20:43;20.38;;;16.73;;
36797;SDS011;22748;8.426;99.512;2023-10-09T09:23:15;20.60;;;15.63;;
36797;SDS011;22748;8.426;99.512;2023-10-09T09:25:52;17.30;;;15.50;;
36797;SDS011;22748;8.426;99.512;2023-10-09T09:28:29;22.25;;;16.75;;
36797;SDS011;22748;8.426;99.512;2023-10-09T09:31:07;19.17;;;16.40;;
36797;SDS011;22748;8.426;99.512;2023-10-09T09:33:40;21.40;;;16.55;;
36797;SDS011;22748;8.426;99.512;2023-10-09T09:36:12;17.00;;;14.63;;
36797;SDS011;22748;8.426;99.512;2023-10-09T09:38:42;19.13;;;14.73;;
36797;SDS011;22748;8.426;99.512;2023-10-09T09:41:18;24.35;;;14.45;;
36797;SDS011;22748;8.426;99.512;2023-10-09T09:43:53;14.85;;;13.35;;
36797;SDS011;22748;8.426;99.512;2023-10-09T09:46:27;14.10;;;12.60;;
36797;SDS011;22748;8.426;99.512;2023-10-09T09:49:01;17.70;;;12.88;;
36797;SDS011;22748;8.426;99.512;2023-10-09T09:51:32;14.57;;;13.10;;
36797;SDS011;22748;8.426;99.512;2023-10-09T09:54:02;14.27;;;11.90;;
36797;SDS011;22748;8.426;99.512;2023-10-09T09:56:38;14.65;;;13.25;;
36797;SDS011;22748;8.426;99.512;2023-10-09T09:59:17;14.32;;;12.82;;
36797;SDS011;22748;8.426;99.512;2023-10-09T10:01:53;13.75;;;12.30;;
36797;SDS011;22748;8.426;99.512;2023-10-09T10:04:34;13.90;;;12.48;;
36797;SDS011;22748;8.426;99.512;2023-10-09T10:07:08;15.43;;;13.30;;
36797;SDS011;22748;8.426;99.512;2023-10-09T10:09:44;17.10;;;15.07;;
36797;SDS011;22748;8.426;99.512;2023-10-09T10:19:05;41.17;;;30.08;;
36797;SDS011;22748;8.426;99.512;2023-10-09T10:21:49;40.10;;;28.38;;
36797;SDS011;22748;8.426;99.512;2023-10-09T10:27:36;31.90;;;22.33;;
36797;SDS011;22748;8.426;99.512;2023-10-09T10:30:30;28.95;;;20.13;;
36797;SDS011;22748;8.426;99.512;2023-10-09T10:33:04;23.70;;;19.30;;
36797;SDS011;22748;8.426;99.512;2023-10-09T10:35:54;23.42;;;18.38;;
36797;SDS011;22748;8.426;99.512;2023-10-09T10:38:33;20.25;;;15.50;;
36797;SDS011;22748;8.426;99.512;2023-10-09T10:41:09;19.23;;;15.93;;
36797;SDS011;22748;8.426;99.512;2023-10-09T10:43:54;20.30;;;15.98;;
36797;SDS011;22748;8.426;99.512;2023-10-09T10:46:48;20.42;;;15.90;;
36797;SDS011;22748;8.426;99.512;2023-10-09T10:49:59;19.65;;;16.15;;
36797;SDS011;22748;8.426;99.512;2023-10-09T10:53:11;19.50;;;15.57;;
36797;SDS011;22748;8.426;99.512;2023-10-09T10:56:02;35.13;;;23.73;;
36797;SDS011;22748;8.426;99.512;2023-10-09T10:58:51;42.88;;;29.35;;
36797;SDS011;22748;8.426;99.512;2023-10-09T11:01:39;41.15;;;30.20;;
36797;SDS011;22748;8.426;99.512;2023-10-09T11:04:53;48.40;;;32.72;;
36797;SDS011;22748;8.426;99.512;2023-10-09T11:07:41;49.60;;;36.57;;
36797;SDS011;22748;8.426;99.512;2023-10-09T11:10:25;46.38;;;34.92;;
36797;SDS011;22748;8.426;99.512;2023-10-09T11:12:59;49.95;;;35.70;;
36797;SDS011;22748;8.426;99.512;2023-10-09T11:15:46;61.63;;;43.45;;
36797;SDS011;22748;8.426;99.512;2023-10-09T11:18:41;59.83;;;40.17;;
36797;SDS011;22748;8.426;99.512;2023-10-09T11:21:16;53.30;;;39.65;;
36797;SDS011;22748;8.426;99.512;2023-10-09T11:24:07;72.10;;;52.28;;
36797;SDS011;22748;8.426;99.512;2023-10-09T11:26:56;78.70;;;57.25;;
36797;SDS011;22748;8.426;99.512;2023-10-09T11:29:32;59.45;;;45.15;;
36797;SDS011;22748;8.426;99.512;2023-10-09T11:32:16;49.75;;;36.85;;
36797;SDS011;22748;8.426;99.512;2023-10-09T11:37:39;49.13;;;35.83;;
36797;SDS011;22748;8.426;99.512;2023-10-09T11:43:03;43.65;;;32.67;;
36797;SDS011;22748;8.426;99.512;2023-10-09T11:45:39;41.83;;;32.35;;
36797;SDS011;22748;8.426;99.512;2023-10-09T11:48:21;49.03;;;37.13;;
36797;SDS011;22748;8.426;99.512;2023-10-09T11:50:54;43.53;;;34.25;;
36797;SDS011;22748;8.426;99.512;2023-10-09T11:53:42;41.20;;;32.10;;
36797;SDS011;22748;8.426;99.512;2023-10-09T11:56:16;41.60;;;33.03;;
36797;SDS011;22748;8.426;99.512;2023-10-09T11:58:58;41.35;;;32.67;;
36797;SDS011;22748;8.426;99.512;2023-10-09T12:01:31;41.53;;;32.67;;
36797;SDS011;22748;8.426;99.512;2023-10-09T12:04:28;39.25;;;32.70;;
36797;SDS011;22748;8.426;99.512;2023-10-09T12:06:59;43.15;;;34.83;;
36797;SDS011;22748;8.426;99.512;2023-10-09T12:09:36;43.75;;;35.90;;
36797;SDS011;22748;8.426;99.512;2023-10-09T12:12:08;45.03;;;36.28;;
36797;SDS011;22748;8.426;99.512;2023-10-09T12:14:40;51.47;;;39.95;;
36797;SDS011;22748;8.426;99.512;2023-10-09T12:17:12;49.13;;;39.63;;
36797;SDS011;22748;8.426;99.512;2023-10-09T12:19:41;43.93;;;34.20;;
36797;SDS011;22748;8.426;99.512;2023-10-09T12:22:15;44.65;;;36.67;;
36797;SDS011;22748;8.426;99.512;2023-10-09T12:24:47;44.17;;;36.28;;
36797;SDS011;22748;8.426;99.512;2023-10-09T12:27:17;49.75;;;36.08;;
36797;SDS011;22748;8.426;99.512;2023-10-09T12:29:51;49.85;;;38.45;;
36797;SDS011;22748;8.426;99.512;2023-10-09T12:32:23;46.47;;;36.85;;
36797;SDS011;22748;8.426;99.512;2023-10-09T12:34:53;49.75;;;37.67;;
36797;SDS011;22748;8.426;99.512;2023-10-09T12:37:24;46.20;;;35.38;;
36797;SDS011;22748;8.426;99.512;2023-10-09T12:40:01;46.88;;;37.40;;
36797;SDS011;22748;8.426;99.512;2023-10-09T12:42:32;46.33;;;36.63;;
36797;SDS011;22748;8.426;99.512;2023-10-09T12:45:04;46.70;;;35.45;;
36797;SDS011;22748;8.426;99.512;2023-10-09T12:47:37;44.55;;;36.60;;
36797;SDS011;22748;8.426;99.512;2023-10-09T12:50:10;50.63;;;37.25;;
36797;SDS011;22748;8.426;99.512;2023-10-09T12:52:41;48.83;;;36.90;;
36797;SDS011;22748;8.426;99.512;2023-10-09T12:55:24;45.53;;;36.60;;
36797;SDS011;22748;8.426;99.512;2023-10-09T12:58:00;44.78;;;35.20;;
36797;SDS011;22748;8.426;99.512;2023-10-09T13:00:41;45.47;;;35.70;;
36797;SDS011;22748;8.426;99.512;2023-10-09T13:03:17;47.55;;;36.28;;
36797;SDS011;22748;8.426;99.512;2023-10-09T13:08:41;49.25;;;37.05;;
36797;SDS011;22748;8.426;99.512;2023-10-09T13:11:18;50.25;;;37.03;;
36797;SDS011;22748;8.426;99.512;2023-10-09T13:14:01;45.22;;;36.67;;
36797;SDS011;22748;8.426;99.512;2023-10-09T13:16:40;42.58;;;34.65;;
36797;SDS011;22748;8.426;99.512;2023-10-09T13:19:14;44.58;;;35.33;;
36797;SDS011;22748;8.426;99.512;2023-10-09T13:21:45;45.53;;;36.60;;
36797;SDS011;22748;8.426;99.512;2023-10-09T13:24:24;47.22;;;36.88;;
36797;SDS011;22748;8.426;99.512;2023-10-09T13:26:56;45.08;;;36.55;;
36797;SDS011;22748;8.426;99.512;2023-10-09T13:29:27;44.17;;;35.50;;
36797;SDS011;22748;8.426;99.512;2023-10-09T13:32:01;43.15;;;34.35;;
36797;SDS011;22748;8.426;99.512;2023-10-09T13:34:40;42.10;;;33.58;;
36797;SDS011;22748;8.426;99.512;2023-10-09T13:37:11;45.83;;;38.10;;
36797;SDS011;22748;8.426;99.512;2023-10-09T13:40:00;47.33;;;36.53;;
36797;SDS011;22748;8.426;99.512;2023-10-09T13:42:58;45.90;;;36.35;;
36797;SDS011;22748;8.426;99.512;2023-10-09T13:46:09;44.78;;;34.97;;
36797;SDS011;22748;8.426;99.512;2023-10-09T13:48:51;40.30;;;32.78;;
36797;SDS011;22748;8.426;99.512;2023-10-09T13:51:38;42.63;;;33.43;;
36797;SDS011;22748;8.426;99.512;2023-10-09T13:54:12;40.72;;;32.65;;
36797;SDS011;22748;8.426;99.512;2023-10-09T13:56:55;38.17;;;30.15;;
36797;SDS011;22748;8.426;99.512;2023-10-09T13:59:25;38.58;;;29.42;;
36797;SDS011;22748;8.426;99.512;2023-10-09T14:02:02;37.03;;;29.77;;
36797;SDS011;22748;8.426;99.512;2023-10-09T14:04:41;39.38;;;30.30;;
36797;SDS011;22748;8.426;99.512;2023-10-09T14:07:15;38.03;;;29.73;;
36797;SDS011;22748;8.426;99.512;2023-10-09T14:09:52;37.05;;;29.73;;
36797;SDS011;22748;8.426;99.512;2023-10-09T14:12:34;34.60;;;27.60;;
36797;SDS011;22748;8.426;99.512;2023-10-09T14:15:07;30.42;;;24.20;;
36797;SDS011;22748;8.426;99.512;2023-10-09T14:17:45;31.20;;;23.23;;
36797;SDS011;22748;8.426;99.512;2023-10-09T14:20:23;27.00;;;21.08;;
36797;SDS011;22748;8.426;99.512;2023-10-09T14:22:57;27.30;;;20.35;;
36797;SDS011;22748;8.426;99.512;2023-10-09T14:25:33;30.88;;;23.63;;
36797;SDS011;22748;8.426;99.512;2023-10-09T14:28:07;31.38;;;25.20;;
36797;SDS011;22748;8.426;99.512;2023-10-09T14:30:45;33.17;;;26.13;;
36797;SDS011;22748;8.426;99.512;2023-10-09T14:33:23;41.50;;;30.17;;
36797;SDS011;22748;8.426;99.512;2023-10-09T14:36:05;41.25;;;31.02;;
36797;SDS011;22748;8.426;99.512;2023-10-09T14:38:41;43.35;;;33.13;;
36797;SDS011;22748;8.426;99.512;2023-10-09T14:41:22;42.70;;;31.40;;
36797;SDS011;22748;8.426;99.512;2023-10-09T14:43:53;40.00;;;33.78;;
36797;SDS011;22748;8.426;99.512;2023-10-09T14:46:43;41.97;;;33.25;;
36797;SDS011;22748;8.426;99.512;2023-10-09T14:49:19;43.70;;;34.28;;
36797;SDS011;22748;8.426;99.512;2023-10-09T14:51:54;45.90;;;34.80;;
36797;SDS011;22748;8.426;99.512;2023-10-09T14:54:26;45.17;;;35.25;;
36797;SDS011;22748;8.426;99.512;2023-10-09T14:57:01;47.17;;;34.58;;
36797;SDS011;22748;8.426;99.512;2023-10-09T14:59:37;43.42;;;33.63;;
36797;SDS011;22748;8.426;99.512;2023-10-09T15:02:28;41.58;;;31.70;;
36797;SDS011;22748;8.426;99.512;2023-10-09T15:05:20;36.50;;;31.05;;
36797;SDS011;22748;8.426;99.512;2023-10-09T15:07:54;37.90;;;29.77;;
36797;SDS011;22748;8.426;99.512;2023-10-09T15:13:23;31.83;;;26.80;;
36797;SDS011;22748;8.426;99.512;2023-10-09T15:15:59;34.63;;;24.90;;
36797;SDS011;22748;8.426;99.512;2023-10-09T15:21:25;31.38;;;25.95;;
36797;SDS011;22748;8.426;99.512;2023-10-09T15:24:23;28.27;;;24.80;;
36797;SDS011;22748;8.426;99.512;2023-10-09T15:27:04;31.08;;;25.83;;
36797;SDS011;22748;8.426;99.512;2023-10-09T15:29:36;31.80;;;24.67;;
36797;SDS011;22748;8.426;99.512;2023-10-09T15:32:11;28.83;;;21.88;;
36797;SDS011;22748;8.426;99.512;2023-10-09T15:34:49;26.73;;;21.58;;
36797;SDS011;22748;8.426;99.512;2023-10-09T15:37:44;25.77;;;21.77;;
36797;SDS011;22748;8.426;99.512;2023-10-09T15:43:34;27.17;;;21.33;;
36797;SDS011;22748;8.426;99.512;2023-10-09T15:46:23;23.58;;;20.17;;
36797;SDS011;22748;8.426;99.512;2023-10-09T15:49:00;22.92;;;19.92;;
36797;SDS011;22748;8.426;99.512;2023-10-09T15:51:47;21.45;;;19.25;;
36797;SDS011;22748;8.426;99.512;2023-10-09T15:54:21;21.90;;;18.50;;
36797;SDS011;22748;8.426;99.512;2023-10-09T15:57:39;21.00;;;18.80;;
36797;SDS011;22748;8.426;99.512;2023-10-09T16:00:22;23.67;;;20.48;;
36797;SDS011;22748;8.426;99.512;2023-10-09T16:03:24;24.25;;;21.65;;
36797;SDS011;22748;8.426;99.512;2023-10-09T16:06:07;23.17;;;20.67;;
36797;SDS011;22748;8.426;99.512;2023-10-09T16:08:44;21.50;;;18.08;;
36797;SDS011;22748;8.426;99.512;2023-10-09T16:11:17;21.48;;;17.48;;
36797;SDS011;22748;8.426;99.512;2023-10-09T16:13:50;20.40;;;18.15;;
36797;SDS011;22748;8.426;99.512;2023-10-09T16:23:30;18.27;;;16.35;;
36797;SDS011;22748;8.426;99.512;2023-10-09T16:26:17;18.20;;;16.30;;
36797;SDS011;22748;8.426;99.512;2023-10-09T16:28:52;19.67;;;16.63;;